Time;durP1;ratioP1;P1;durP2;ratioP2;P2;SDS_P1;SDS_P2;PMS_P1;PMS_P2;Temp;Humidity;BMP_temperature;BMP_pressure;BME280_temperature;BME280_humidity;BME280_pressure;Samples;Min_cycle;Max_cycle;Signal;HPM_P1;HPM_P2
2020/12/10 00:01:31;;;;;;;73.72;35.75;;;;;;;;;;5093672;28;20036;-76
2020/12/10 00:03:57;;;;;;;81.65;38.45;;;;;;;;;;5093583;28;20043;-75
2020/12/10 00:06:22;;;;;;;69.05;33.95;;;;;;;;;;5093400;28;20115;-76
2020/12/10 00:08:47;;;;;;;74.45;36.03;;;;;;;;;;5093864;28;20382;-76
2020/12/10 00:11:13;;;;;;;68.75;35.83;;;;;;;;;;5092669;28;20036;-76
2020/12/10 00:13:38;;;;;;;63.28;32.40;;;;;;;;;;5093619;28;20043;-76
2020/12/10 00:16:03;;;;;;;68.75;34.38;;;;;;;;;;5093422;28;20156;-76
2020/12/10 00:18:29;;;;;;;69.65;33.60;;;;;;;;;;5093304;28;20085;-76
2020/12/10 00:20:54;;;;;;;67.57;34.30;;;;;;;;;;5093632;28;20036;-76
2020/12/10 00:23:19;;;;;;;69.70;34.70;;;;;;;;;;5093364;28;20039;-76
2020/12/10 00:25:45;;;;;;;77.03;36.30;;;;;;;;;;5093486;28;20060;-76
2020/12/10 00:28:10;;;;;;;70.35;35.53;;;;;;;;;;5093331;28;20093;-76
2020/12/10 00:30:35;;;;;;;71.78;35.40;;;;;;;;;;5093305;28;20099;-76
2020/12/10 00:33:01;;;;;;;71.68;36.03;;;;;;;;;;5093571;28;20035;-76
2020/12/10 00:35:26;;;;;;;78.57;37.72;;;;;;;;;;5093413;28;20043;-76
2020/12/10 00:37:51;;;;;;;76.85;38.35;;;;;;;;;;5093618;28;20036;-76
2020/12/10 00:40:17;;;;;;;81.05;38.47;;;;;;;;;;5093266;28;20066;-76
2020/12/10 00:42:42;;;;;;;79.43;38.20;;;;;;;;;;5093456;28;20031;-76
2020/12/10 00:45:08;;;;;;;83.43;39.17;;;;;;;;;;5093409;28;20032;-76
2020/12/10 00:47:33;;;;;;;84.13;38.00;;;;;;;;;;5093018;28;20094;-75
2020/12/10 00:49:59;;;;;;;80.88;37.90;;;;;;;;;;5094918;28;20035;-76
2020/12/10 00:52:26;;;;;;;79.60;36.17;;;;;;;;;;5096181;28;20119;-76
2020/12/10 00:54:56;;;;;;;76.53;36.25;;;;;;;;;;5097658;28;20036;-76
2020/12/10 00:57:25;;;;;;;77.88;36.20;;;;;;;;;;5096311;28;20541;-76
2020/12/10 00:59:50;;;;;;;71.55;36.10;;;;;;;;;;5096306;28;20127;-75
2020/12/10 01:02:15;;;;;;;67.25;32.00;;;;;;;;;;5096887;28;20039;-76
2020/12/10 01:04:41;;;;;;;75.28;35.28;;;;;;;;;;5097099;28;20043;-76
2020/12/10 01:07:06;;;;;;;83.40;37.55;;;;;;;;;;5097095;28;20040;-76
2020/12/10 01:09:31;;;;;;;76.78;35.60;;;;;;;;;;5097018;28;20043;-76
2020/12/10 01:11:57;;;;;;;80.18;36.60;;;;;;;;;;5096828;28;20137;-76
2020/12/10 01:14:22;;;;;;;78.30;36.67;;;;;;;;;;5096801;28;20157;-76
2020/12/10 01:16:48;;;;;;;72.88;34.92;;;;;;;;;;5096842;28;20079;-76
2020/12/10 01:19:14;;;;;;;71.45;35.85;;;;;;;;;;5095990;28;20398;-77
2020/12/10 01:21:39;;;;;;;64.97;33.55;;;;;;;;;;5096830;28;20111;-76
2020/12/10 01:24:05;;;;;;;68.03;33.67;;;;;;;;;;5097048;28;20405;-76
2020/12/10 01:26:33;;;;;;;64.68;31.08;;;;;;;;;;5096766;28;20047;-76
2020/12/10 01:29:00;;;;;;;76.13;35.10;;;;;;;;;;5096602;28;20392;-76
2020/12/10 01:31:26;;;;;;;77.03;35.53;;;;;;;;;;5096283;28;20039;-76
2020/12/10 01:33:52;;;;;;;74.38;35.50;;;;;;;;;;5096863;28;20052;-76
2020/12/10 01:36:27;;;;;;;73.75;35.90;;;;;;;;;;5096639;28;20485;-76
2020/12/10 01:38:52;;;;;;;71.20;34.55;;;;;;;;;;5095882;28;20113;-76
2020/12/10 01:41:19;;;;;;;71.00;34.15;;;;;;;;;;5096454;28;20062;-76
2020/12/10 01:43:44;;;;;;;64.20;31.80;;;;;;;;;;5096391;28;20042;-76
2020/12/10 01:46:10;;;;;;;73.78;34.63;;;;;;;;;;5094610;28;20031;-76
2020/12/10 01:48:37;;;;;;;78.90;36.65;;;;;;;;;;5095867;28;20028;-76
2020/12/10 01:51:03;;;;;;;74.15;36.60;;;;;;;;;;5096456;28;20043;-76
2020/12/10 01:53:28;;;;;;;79.22;36.65;;;;;;;;;;5096298;28;20424;-76
2020/12/10 01:55:54;;;;;;;82.55;37.75;;;;;;;;;;5096430;28;20036;-76
2020/12/10 01:58:20;;;;;;;83.85;39.15;;;;;;;;;;5096199;28;20386;-76
2020/12/10 02:00:45;;;;;;;82.55;37.50;;;;;;;;;;5095592;28;20040;-76
2020/12/10 02:03:10;;;;;;;73.65;35.38;;;;;;;;;;5095655;28;20051;-76
2020/12/10 02:05:47;;;;;;;79.05;35.13;;;;;;;;;;5096147;28;20048;-76
2020/12/10 02:08:14;;;;;;;72.82;34.28;;;;;;;;;;5095908;28;20068;-76
2020/12/10 02:10:40;;;;;;;70.53;33.25;;;;;;;;;;5096037;28;20092;-76
2020/12/10 02:13:05;;;;;;;79.30;37.10;;;;;;;;;;5094699;28;20123;-77
2020/12/10 02:15:34;;;;;;;78.15;36.05;;;;;;;;;;5094675;28;20031;-76
2020/12/10 02:18:01;;;;;;;76.85;35.92;;;;;;;;;;5095607;28;20028;-76
2020/12/10 02:20:26;;;;;;;75.32;34.13;;;;;;;;;;5095933;28;20063;-76
2020/12/10 02:23:05;;;;;;;75.63;35.28;;;;;;;;;;5094949;28;20512;-77
2020/12/10 02:25:32;;;;;;;78.07;37.20;;;;;;;;;;5095701;28;20036;-76
2020/12/10 02:28:11;;;;;;;80.20;36.35;;;;;;;;;;5094273;28;20036;-76
2020/12/10 02:30:41;;;;;;;83.78;39.58;;;;;;;;;;5095553;28;20050;-76
2020/12/10 02:33:07;;;;;;;79.70;36.35;;;;;;;;;;5095281;28;20047;-76
2020/12/10 02:35:35;;;;;;;81.72;36.17;;;;;;;;;;5095503;28;20024;-76
2020/12/10 02:38:03;;;;;;;74.57;36.22;;;;;;;;;;5095633;28;20036;-76
2020/12/10 02:40:31;;;;;;;84.35;38.40;;;;;;;;;;5095419;28;20032;-76
2020/12/10 02:42:57;;;;;;;89.78;39.50;;;;;;;;;;5095187;28;20036;-76
2020/12/10 02:45:24;;;;;;;84.30;38.22;;;;;;;;;;5095280;28;20032;-76
2020/12/10 02:47:50;;;;;;;84.38;37.25;;;;;;;;;;5094780;28;20488;-76
2020/12/10 02:50:16;;;;;;;77.32;36.70;;;;;;;;;;5094592;28;20117;-76
2020/12/10 02:52:42;;;;;;;81.38;36.78;;;;;;;;;;5095273;28;20125;-76
2020/12/10 02:55:07;;;;;;;76.68;36.30;;;;;;;;;;5095158;28;20040;-76
2020/12/10 02:57:34;;;;;;;72.90;34.15;;;;;;;;;;5093730;28;20080;-76
2020/12/10 02:59:59;;;;;;;74.03;35.00;;;;;;;;;;5094712;28;20082;-76
2020/12/10 03:02:25;;;;;;;76.85;37.03;;;;;;;;;;5094812;28;20067;-76
2020/12/10 03:04:50;;;;;;;71.40;33.42;;;;;;;;;;5095095;28;20032;-76
2020/12/10 03:07:16;;;;;;;78.28;34.20;;;;;;;;;;5094843;28;20063;-76
2020/12/10 03:09:42;;;;;;;70.45;33.13;;;;;;;;;;5095031;28;20047;-76
2020/12/10 03:12:09;;;;;;;82.70;36.20;;;;;;;;;;5094771;28;20054;-77
2020/12/10 03:14:35;;;;;;;78.82;36.17;;;;;;;;;;5095244;28;20054;-76
2020/12/10 03:17:00;;;;;;;87.00;37.83;;;;;;;;;;5094136;28;20446;-76
2020/12/10 03:19:25;;;;;;;73.88;33.50;;;;;;;;;;5094709;28;20046;-76
2020/12/10 03:21:51;;;;;;;85.93;38.53;;;;;;;;;;5094798;28;20044;-78
2020/12/10 03:24:16;;;;;;;72.10;32.30;;;;;;;;;;5095040;28;20490;-76
2020/12/10 03:26:41;;;;;;;71.55;35.28;;;;;;;;;;5094554;28;20413;-77
2020/12/10 03:29:08;;;;;;;83.30;37.60;;;;;;;;;;5094748;28;20085;-76
2020/12/10 03:31:34;;;;;;;76.20;33.70;;;;;;;;;;5094405;28;20036;-76
2020/12/10 03:34:00;;;;;;;81.50;36.67;;;;;;;;;;5094304;28;20078;-76
2020/12/10 03:36:25;;;;;;;78.30;36.67;;;;;;;;;;5094222;28;20481;-76
2020/12/10 03:38:51;;;;;;;87.38;37.72;;;;;;;;;;5094608;28;20485;-77
2020/12/10 03:41:16;;;;;;;79.45;36.58;;;;;;;;;;5093979;28;20040;-76
2020/12/10 03:43:42;;;;;;;80.88;36.45;;;;;;;;;;5094364;28;20118;-76
2020/12/10 03:46:07;;;;;;;84.82;37.70;;;;;;;;;;5094170;28;20032;-76
2020/12/10 03:48:32;;;;;;;79.00;37.90;;;;;;;;;;5096117;28;20028;-78
2020/12/10 03:50:58;;;;;;;82.95;36.90;;;;;;;;;;5082335;28;20044;-76
2020/12/10 03:53:23;;;;;;;78.90;37.55;;;;;;;;;;5073535;28;20047;-76
2020/12/10 03:55:48;;;;;;;82.60;37.90;;;;;;;;;;5073717;28;20037;-76
2020/12/10 03:58:14;;;;;;;76.72;36.42;;;;;;;;;;5073654;28;20037;-77
2020/12/10 04:00:39;;;;;;;76.40;36.05;;;;;;;;;;5073555;28;20037;-75
2020/12/10 04:03:04;;;;;;;75.80;34.97;;;;;;;;;;5073263;28;20029;-76
2020/12/10 04:05:30;;;;;;;81.38;36.97;;;;;;;;;;5073962;28;20438;-77
2020/12/10 04:07:55;;;;;;;78.90;36.10;;;;;;;;;;5073264;28;20033;-76
2020/12/10 04:10:20;;;;;;;82.07;36.38;;;;;;;;;;5073286;28;20082;-76
2020/12/10 04:12:46;;;;;;;78.32;35.40;;;;;;;;;;5073266;28;20347;-76
2020/12/10 04:15:11;;;;;;;84.13;36.85;;;;;;;;;;5073595;28;20041;-76
2020/12/10 04:17:36;;;;;;;77.65;36.88;;;;;;;;;;5073309;28;20036;-76
2020/12/10 04:20:03;;;;;;;72.90;34.65;;;;;;;;;;5082055;28;20107;-76
2020/12/10 04:22:28;;;;;;;79.38;35.88;;;;;;;;;;5112743;28;20101;-76
2020/12/10 04:24:53;;;;;;;88.70;37.45;;;;;;;;;;5113872;28;20485;-76
2020/12/10 04:27:19;;;;;;;79.82;35.42;;;;;;;;;;5113823;28;20030;-76
2020/12/10 04:29:44;;;;;;;83.47;36.78;;;;;;;;;;5113925;28;20107;-76
2020/12/10 04:32:09;;;;;;;85.43;39.20;;;;;;;;;;5112505;28;20035;-76
2020/12/10 04:34:35;;;;;;;92.22;40.38;;;;;;;;;;5113707;28;20066;-76
2020/12/10 04:37:00;;;;;;;83.43;37.83;;;;;;;;;;5113919;28;20084;-76
2020/12/10 04:39:25;;;;;;;92.18;38.35;;;;;;;;;;5113578;28;20039;-76
2020/12/10 04:41:51;;;;;;;91.15;37.30;;;;;;;;;;5113731;28;20038;-76
2020/12/10 04:44:16;;;;;;;86.78;37.72;;;;;;;;;;5113886;28;20082;-76
2020/12/10 04:46:44;;;;;;;79.85;37.05;;;;;;;;;;5113745;28;20057;-76
2020/12/10 04:49:11;;;;;;;89.30;38.78;;;;;;;;;;5113617;28;20071;-76
2020/12/10 04:51:37;;;;;;;83.68;38.60;;;;;;;;;;5096117;28;20440;-76
2020/12/10 04:54:03;;;;;;;87.97;37.70;;;;;;;;;;5093398;28;20047;-76
2020/12/10 04:56:29;;;;;;;87.38;38.88;;;;;;;;;;5093086;28;20126;-76
2020/12/10 04:58:54;;;;;;;89.82;38.83;;;;;;;;;;5092997;28;20071;-76
2020/12/10 05:01:20;;;;;;;92.47;39.88;;;;;;;;;;5093284;28;20040;-76
2020/12/10 05:03:46;;;;;;;96.25;40.70;;;;;;;;;;5093012;28;20031;-76
2020/12/10 05:06:16;;;;;;;95.13;39.47;;;;;;;;;;5093063;28;20042;-76
2020/12/10 05:08:43;;;;;;;97.22;38.92;;;;;;;;;;5093076;28;20074;-76
2020/12/10 05:11:09;;;;;;;94.47;40.85;;;;;;;;;;5093109;28;20530;-76
2020/12/10 05:13:36;;;;;;;96.72;40.42;;;;;;;;;;5092904;28;20497;-76
2020/12/10 05:16:01;;;;;;;95.97;38.78;;;;;;;;;;5093307;28;20032;-76
2020/12/10 05:18:28;;;;;;;94.15;38.78;;;;;;;;;;5092687;28;20031;-76
2020/12/10 05:20:58;;;;;;;91.13;37.42;;;;;;;;;;5093142;28;20122;-76
2020/12/10 05:23:37;;;;;;;85.88;37.80;;;;;;;;;;5093030;28;20111;-75
2020/12/10 05:26:04;;;;;;;90.20;37.05;;;;;;;;;;5093043;28;20043;-76
2020/12/10 05:28:44;;;;;;;74.63;33.25;;;;;;;;;;5093037;28;20035;-76
2020/12/10 05:31:13;;;;;;;79.85;33.22;;;;;;;;;;5092688;28;20040;-75
2020/12/10 05:33:58;;;;;;;71.07;32.92;;;;;;;;;;5092720;28;20055;-76
2020/12/10 05:36:25;;;;;;;70.18;31.23;;;;;;;;;;5095058;28;20094;-76
2020/12/10 05:39:08;;;;;;;74.18;33.40;;;;;;;;;;5096694;28;20533;-76
2020/12/10 05:41:38;;;;;;;81.18;35.97;;;;;;;;;;5096606;28;20032;-75
2020/12/10 05:44:19;;;;;;;80.55;35.75;;;;;;;;;;5096474;28;20035;-75
2020/12/10 05:46:46;;;;;;;86.50;35.05;;;;;;;;;;5096215;28;20085;-76
2020/12/10 05:49:15;;;;;;;80.18;34.95;;;;;;;;;;5095903;28;20425;-76
2020/12/10 05:51:43;;;;;;;76.18;34.58;;;;;;;;;;5096545;28;20385;-75
2020/12/10 05:54:10;;;;;;;88.95;35.53;;;;;;;;;;5096452;28;20043;-76
2020/12/10 05:56:48;;;;;;;78.10;34.58;;;;;;;;;;5096215;28;20126;-76
2020/12/10 05:59:14;;;;;;;94.40;39.10;;;;;;;;;;5096156;28;20058;-76
2020/12/10 06:01:39;;;;;;;95.00;38.40;;;;;;;;;;5096255;28;20035;-76
2020/12/10 06:04:05;;;;;;;96.93;39.25;;;;;;;;;;5095810;28;20036;-76
2020/12/10 06:06:31;;;;;;;92.05;38.47;;;;;;;;;;5096165;28;20446;-76
2020/12/10 06:09:03;;;;;;;86.35;36.90;;;;;;;;;;5096085;28;20035;-76
2020/12/10 06:11:30;;;;;;;90.07;36.47;;;;;;;;;;5095959;28;20622;-76
2020/12/10 06:14:08;;;;;;;95.32;38.58;;;;;;;;;;5096228;28;20065;-76
2020/12/10 06:16:34;;;;;;;94.85;40.78;;;;;;;;;;5095752;28;20540;-76
2020/12/10 06:19:09;;;;;;;91.50;38.50;;;;;;;;;;5094911;28;20481;-76
2020/12/10 06:21:43;;;;;;;81.85;35.95;;;;;;;;;;5095874;28;20043;-76
2020/12/10 06:24:24;;;;;;;83.35;36.28;;;;;;;;;;5094482;28;20069;-76
2020/12/10 06:26:50;;;;;;;91.03;37.90;;;;;;;;;;5095892;28;20043;-76
2020/12/10 06:29:17;;;;;;;94.88;39.58;;;;;;;;;;5095735;28;20028;-76
2020/12/10 06:32:04;;;;;;;84.78;35.42;;;;;;;;;;5095811;28;20032;-76
2020/12/10 06:34:34;;;;;;;85.45;34.33;;;;;;;;;;5095428;28;20032;-76
2020/12/10 06:37:13;;;;;;;84.15;36.10;;;;;;;;;;5094558;28;20032;-76
2020/12/10 06:39:39;;;;;;;93.40;37.72;;;;;;;;;;5095689;28;20053;-76
2020/12/10 06:42:04;;;;;;;94.85;40.20;;;;;;;;;;5095497;28;20020;-77
2020/12/10 06:44:34;;;;;;;100.68;43.10;;;;;;;;;;5095353;28;20067;-77
2020/12/10 06:47:00;;;;;;;86.13;37.08;;;;;;;;;;5094286;28;20093;-77
2020/12/10 06:49:31;;;;;;;101.13;41.63;;;;;;;;;;5095127;28;20036;-77
2020/12/10 06:52:10;;;;;;;93.63;38.20;;;;;;;;;;5095573;28;20093;-77
2020/12/10 06:54:56;;;;;;;97.32;39.60;;;;;;;;;;5095416;28;20118;-77
2020/12/10 06:57:21;;;;;;;86.93;37.70;;;;;;;;;;5095926;28;20085;-78
2020/12/10 06:59:46;;;;;;;94.72;40.03;;;;;;;;;;5084184;28;20036;-78
2020/12/10 07:02:17;;;;;;;90.38;37.47;;;;;;;;;;5094386;28;20040;-78
2020/12/10 07:04:51;;;;;;;92.88;37.38;;;;;;;;;;5077720;28;20048;-77
2020/12/10 07:07:22;;;;;;;94.32;38.25;;;;;;;;;;5075002;28;20081;-78
2020/12/10 07:09:50;;;;;;;85.95;36.65;;;;;;;;;;5091335;28;20466;-78
2020/12/10 07:12:26;;;;;;;74.25;33.40;;;;;;;;;;5095432;28;20074;-78
2020/12/10 07:15:08;;;;;;;82.90;36.27;;;;;;;;;;5097299;28;20058;-79
2020/12/10 07:17:33;;;;;;;88.32;36.03;;;;;;;;;;5096711;28;20038;-78
2020/12/10 07:19:59;;;;;;;76.07;33.30;;;;;;;;;;5096552;28;20040;-78
2020/12/10 07:22:24;;;;;;;80.70;34.00;;;;;;;;;;5095526;28;20419;-80
2020/12/10 07:24:49;;;;;;;83.25;34.85;;;;;;;;;;5096077;28;20409;-76
2020/12/10 07:27:15;;;;;;;75.18;32.38;;;;;;;;;;5094644;28;20139;-77
2020/12/10 07:29:40;;;;;;;81.28;33.20;;;;;;;;;;5094842;28;20038;-76
2020/12/10 07:32:06;;;;;;;75.60;33.85;;;;;;;;;;5094560;28;20505;-77
2020/12/10 07:34:40;;;;;;;76.78;33.17;;;;;;;;;;5094280;28;20040;-76
2020/12/10 07:37:09;;;;;;;71.38;31.60;;;;;;;;;;5090106;28;20035;-76
2020/12/10 07:39:34;;;;;;;76.45;30.63;;;;;;;;;;5077750;28;20521;-77
2020/12/10 07:42:00;;;;;;;80.18;33.75;;;;;;;;;;5073788;28;20032;-77
2020/12/10 07:44:31;;;;;;;76.82;33.83;;;;;;;;;;5077973;28;20374;-82
2020/12/10 07:46:57;;;;;;;79.90;33.13;;;;;;;;;;5098563;28;20099;-84
2020/12/10 07:49:41;;;;;;;78.30;35.38;;;;;;;;;;5078598;28;20057;-77
2020/12/10 07:52:11;;;;;;;82.95;35.58;;;;;;;;;;5098005;28;20431;-82
2020/12/10 07:54:47;;;;;;;79.78;32.92;;;;;;;;;;5097305;28;20539;-83
2020/12/10 07:57:23;;;;;;;74.97;34.40;;;;;;;;;;5094375;28;20035;-77
2020/12/10 07:59:56;;;;;;;82.27;33.90;;;;;;;;;;5096508;28;20056;-81
2020/12/10 08:02:38;;;;;;;75.03;33.97;;;;;;;;;;5099360;28;20328;-83
2020/12/10 08:05:12;;;;;;;76.82;34.33;;;;;;;;;;5099544;28;20040;-79
2020/12/10 08:07:38;;;;;;;79.38;34.30;;;;;;;;;;5098592;28;20043;-79
2020/12/10 08:10:03;;;;;;;73.97;32.20;;;;;;;;;;5099562;28;20373;-80
2020/12/10 08:12:28;;;;;;;73.13;34.15;;;;;;;;;;5098975;28;20183;-80
2020/12/10 08:14:54;;;;;;;76.60;34.13;;;;;;;;;;5098552;28;20036;-81
2020/12/10 08:17:20;;;;;;;85.50;36.50;;;;;;;;;;5099283;28;20470;-80
2020/12/10 08:19:55;;;;;;;97.18;41.38;;;;;;;;;;5098799;28;20499;-82
2020/12/10 08:22:23;;;;;;;100.35;40.75;;;;;;;;;;5097071;28;20485;-79
2020/12/10 08:24:48;;;;;;;92.15;37.97;;;;;;;;;;5097659;28;20036;-79
2020/12/10 08:27:18;;;;;;;99.28;41.38;;;;;;;;;;5097557;28;20039;-78
2020/12/10 08:30:04;;;;;;;85.63;38.47;;;;;;;;;;5079225;28;20044;-76
2020/12/10 08:32:29;;;;;;;98.60;41.13;;;;;;;;;;5094074;28;20115;-76
2020/12/10 08:35:05;;;;;;;115.57;46.85;;;;;;;;;;5093561;28;20445;-76
2020/12/10 08:37:38;;;;;;;99.50;43.33;;;;;;;;;;5096256;28;20032;-78
2020/12/10 08:40:09;;;;;;;104.45;42.33;;;;;;;;;;5097954;28;20032;-79
2020/12/10 08:42:35;;;;;;;98.13;40.03;;;;;;;;;;5100115;28;20043;-78
2020/12/10 08:45:00;;;;;;;110.93;43.63;;;;;;;;;;5098667;28;20386;-81
2020/12/10 08:47:28;;;;;;;101.35;41.05;;;;;;;;;;5097790;28;20417;-79
2020/12/10 08:50:21;;;;;;;113.78;47.25;;;;;;;;;;5095880;28;20039;-78
2020/12/10 08:52:47;;;;;;;97.32;40.00;;;;;;;;;;5099550;28;20114;-78
2020/12/10 08:55:12;;;;;;;100.70;40.60;;;;;;;;;;5098685;28;20473;-77
2020/12/10 08:57:48;;;;;;;90.80;37.33;;;;;;;;;;5096714;28;20047;-77
2020/12/10 09:00:14;;;;;;;90.45;38.10;;;;;;;;;;5097351;28;20076;-77
2020/12/10 09:02:39;;;;;;;89.18;37.03;;;;;;;;;;5096509;28;20355;-75
2020/12/10 09:05:04;;;;;;;87.35;36.17;;;;;;;;;;5095318;28;20047;-77
2020/12/10 09:07:30;;;;;;;89.20;36.33;;;;;;;;;;5072016;28;20036;-77
2020/12/10 09:09:55;;;;;;;91.45;35.72;;;;;;;;;;5074239;28;20462;-76
2020/12/10 09:12:20;;;;;;;82.72;35.75;;;;;;;;;;5077435;28;20452;-78
2020/12/10 09:14:46;;;;;;;89.38;35.55;;;;;;;;;;5077145;28;20044;-78
2020/12/10 09:17:11;;;;;;;72.07;31.60;;;;;;;;;;5078170;28;20033;-77
2020/12/10 09:19:36;;;;;;;66.70;31.00;;;;;;;;;;5076661;28;20454;-78
2020/12/10 09:22:02;;;;;;;65.32;30.23;;;;;;;;;;5077173;28;20086;-76
2020/12/10 09:24:27;;;;;;;62.67;28.10;;;;;;;;;;5076757;28;20040;-76
2020/12/10 09:26:52;;;;;;;58.67;26.75;;;;;;;;;;5076906;28;20082;-75
2020/12/10 09:29:18;;;;;;;62.70;29.52;;;;;;;;;;5077519;28;20089;-75
2020/12/10 09:31:43;;;;;;;54.58;26.98;;;;;;;;;;5075832;28;20401;-75
2020/12/10 09:34:08;;;;;;;56.17;26.60;;;;;;;;;;5076585;28;20044;-76
2020/12/10 09:36:34;;;;;;;52.80;25.33;;;;;;;;;;5084546;28;20497;-78
2020/12/10 09:38:59;;;;;;;54.65;26.80;;;;;;;;;;5097220;28;20509;-77
2020/12/10 09:41:25;;;;;;;57.03;27.35;;;;;;;;;;5096733;28;20043;-76
2020/12/10 09:43:50;;;;;;;51.92;24.55;;;;;;;;;;5097749;28;20055;-82
2020/12/10 09:46:15;;;;;;;48.72;24.83;;;;;;;;;;5099391;28;20481;-79
2020/12/10 09:48:40;;;;;;;52.90;26.92;;;;;;;;;;5098308;28;20454;-79
2020/12/10 09:51:08;;;;;;;51.53;24.85;;;;;;;;;;5096220;28;20040;-78
2020/12/10 09:53:44;;;;;;;51.50;25.60;;;;;;;;;;5097145;28;20040;-78
2020/12/10 09:58:38;;;;;;;45.92;23.70;;;;;;;;;;5096833;28;20131;-78
2020/12/10 10:01:07;;;;;;;42.67;22.60;;;;;;;;;;5097672;28;20107;-79
2020/12/10 10:03:32;;;;;;;43.80;23.25;;;;;;;;;;5099770;28;20036;-80
2020/12/10 10:05:58;;;;;;;45.35;24.55;;;;;;;;;;5101704;28;20050;-80
2020/12/10 10:08:24;;;;;;;44.72;24.08;;;;;;;;;;5101259;28;20065;-80
2020/12/10 10:10:50;;;;;;;40.75;22.02;;;;;;;;;;5101343;28;20047;-80
2020/12/10 10:13:15;;;;;;;41.03;21.05;;;;;;;;;;5101121;28;20040;-80
2020/12/10 10:15:42;;;;;;;42.25;22.50;;;;;;;;;;5100560;28;20141;-80
2020/12/10 10:18:07;;;;;;;44.50;24.42;;;;;;;;;;5099910;28;20036;-79
2020/12/10 10:20:33;;;;;;;48.22;27.10;;;;;;;;;;5100330;28;20032;-80
2020/12/10 10:22:58;;;;;;;51.80;27.80;;;;;;;;;;5100111;28;20366;-79
2020/12/10 10:25:23;;;;;;;46.80;24.08;;;;;;;;;;5099813;28;20520;-80
2020/12/10 10:27:50;;;;;;;46.55;22.58;;;;;;;;;;5099189;28;20039;-80
2020/12/10 10:30:15;;;;;;;44.13;22.73;;;;;;;;;;5099758;28;20036;-80
2020/12/10 10:32:41;;;;;;;54.00;23.70;;;;;;;;;;5100383;28;20057;-80
2020/12/10 10:35:06;;;;;;;44.65;23.90;;;;;;;;;;5099707;28;20103;-80
2020/12/10 10:37:31;;;;;;;40.53;21.38;;;;;;;;;;5097499;28;20047;-79
2020/12/10 10:39:57;;;;;;;42.65;22.25;;;;;;;;;;5099217;28;20420;-80
2020/12/10 10:42:22;;;;;;;42.50;21.85;;;;;;;;;;5099042;28;20482;-80
2020/12/10 10:44:47;;;;;;;41.83;22.10;;;;;;;;;;5099151;28;20051;-80
2020/12/10 10:47:13;;;;;;;38.92;21.55;;;;;;;;;;5098501;28;20548;-80
2020/12/10 10:49:38;;;;;;;46.70;23.15;;;;;;;;;;5096697;28;20040;-80
2020/12/10 10:52:04;;;;;;;41.72;23.02;;;;;;;;;;5097008;28;20032;-80
2020/12/10 10:54:29;;;;;;;53.95;26.90;;;;;;;;;;5098679;28;20089;-80
2020/12/10 10:56:54;;;;;;;49.90;26.77;;;;;;;;;;5098268;28;20063;-80
2020/12/10 10:59:20;;;;;;;49.88;25.60;;;;;;;;;;5096256;28;20101;-80
2020/12/10 11:01:45;;;;;;;43.63;23.20;;;;;;;;;;5098117;28;20085;-80
2020/12/10 11:04:11;;;;;;;39.55;20.92;;;;;;;;;;5097522;28;20167;-80
2020/12/10 11:06:36;;;;;;;40.50;21.90;;;;;;;;;;5097227;28;20056;-79
2020/12/10 11:09:02;;;;;;;41.17;22.13;;;;;;;;;;5097829;28;20047;-79
2020/12/10 11:11:27;;;;;;;38.17;20.63;;;;;;;;;;5078948;28;20122;-80
2020/12/10 11:13:53;;;;;;;40.63;22.08;;;;;;;;;;5096117;28;20078;-80
2020/12/10 11:16:18;;;;;;;40.50;22.77;;;;;;;;;;5097205;28;20032;-80
2020/12/10 11:18:45;;;;;;;41.00;22.23;;;;;;;;;;5096878;28;20456;-80
2020/12/10 11:21:12;;;;;;;39.25;22.05;;;;;;;;;;5097097;28;20118;-79
2020/12/10 11:23:38;;;;;;;43.40;21.05;;;;;;;;;;5096978;28;20079;-79
2020/12/10 11:26:04;;;;;;;36.15;19.77;;;;;;;;;;5096652;28;20028;-80
2020/12/10 11:28:30;;;;;;;40.50;19.77;;;;;;;;;;5080688;28;20044;-77
2020/12/10 11:30:56;;;;;;;37.53;20.05;;;;;;;;;;5075036;28;20037;-78
2020/12/10 11:33:22;;;;;;;32.85;18.58;;;;;;;;;;5075457;28;20029;-78
2020/12/10 11:35:47;;;;;;;35.17;19.27;;;;;;;;;;5076588;28;20473;-80
2020/12/10 11:38:12;;;;;;;36.50;19.65;;;;;;;;;;5075874;28;20028;-76
2020/12/10 11:40:39;;;;;;;39.97;20.80;;;;;;;;;;5077329;28;20036;-78
2020/12/10 11:43:05;;;;;;;36.05;19.83;;;;;;;;;;5079669;28;20127;-79
2020/12/10 11:45:33;;;;;;;41.40;22.77;;;;;;;;;;5079155;28;20068;-78
2020/12/10 11:48:03;;;;;;;47.33;22.20;;;;;;;;;;5078611;28;20083;-75
2020/12/10 11:50:31;;;;;;;36.92;21.90;;;;;;;;;;5078646;28;20059;-78
2020/12/10 11:52:57;;;;;;;35.58;20.05;;;;;;;;;;5082351;28;20070;-73
2020/12/10 11:55:22;;;;;;;33.80;19.55;;;;;;;;;;5078731;28;20040;-78
2020/12/10 11:57:49;;;;;;;36.38;19.90;;;;;;;;;;5078450;28;20458;-76
2020/12/10 12:00:15;;;;;;;34.70;19.90;;;;;;;;;;5074908;28;20052;-75
2020/12/10 12:02:41;;;;;;;40.05;20.88;;;;;;;;;;5077656;28;20043;-78
2020/12/10 12:05:07;;;;;;;35.53;20.90;;;;;;;;;;5075749;28;20032;-78
2020/12/10 12:07:33;;;;;;;33.28;19.20;;;;;;;;;;5089176;28;20509;-76
2020/12/10 12:09:58;;;;;;;28.50;17.38;;;;;;;;;;5094410;28;20036;-78
2020/12/10 12:12:23;;;;;;;33.22;19.83;;;;;;;;;;5095307;28;20036;-75
2020/12/10 12:14:49;;;;;;;33.22;18.42;;;;;;;;;;5093259;28;20036;-75
2020/12/10 12:17:14;;;;;;;31.13;18.92;;;;;;;;;;5097182;28;20035;-77
2020/12/10 12:19:40;;;;;;;36.25;19.85;;;;;;;;;;5094784;28;20063;-77
2020/12/10 12:22:05;;;;;;;32.65;18.60;;;;;;;;;;5093880;28;20089;-78
2020/12/10 12:24:31;;;;;;;32.88;17.77;;;;;;;;;;5094208;28;20061;-76
2020/12/10 12:26:56;;;;;;;30.35;18.27;;;;;;;;;;5093979;28;20097;-77
2020/12/10 12:29:22;;;;;;;33.40;18.02;;;;;;;;;;5094140;28;20067;-77
2020/12/10 12:31:48;;;;;;;34.13;19.58;;;;;;;;;;5094039;28;20042;-75
2020/12/10 12:34:13;;;;;;;34.78;18.33;;;;;;;;;;5093397;28;20118;-75
2020/12/10 12:36:39;;;;;;;28.38;16.70;;;;;;;;;;5093222;28;20047;-74
2020/12/10 12:39:05;;;;;;;27.10;16.35;;;;;;;;;;5093506;28;20107;-74
2020/12/10 12:41:32;;;;;;;28.73;16.25;;;;;;;;;;5093700;28;20039;-75
2020/12/10 12:43:59;;;;;;;28.58;16.58;;;;;;;;;;5092996;28;20035;-74
2020/12/10 12:46:24;;;;;;;25.48;15.80;;;;;;;;;;5093327;28;20114;-75
2020/12/10 12:48:50;;;;;;;33.00;18.17;;;;;;;;;;5093268;28;20036;-76
2020/12/10 12:51:17;;;;;;;30.45;17.27;;;;;;;;;;5092201;28;20036;-74
2020/12/10 12:53:42;;;;;;;31.73;18.25;;;;;;;;;;5093616;28;20549;-73
2020/12/10 12:56:07;;;;;;;31.92;19.48;;;;;;;;;;5093387;28;20119;-76
2020/12/10 12:58:33;;;;;;;31.60;19.00;;;;;;;;;;5093272;28;20067;-76
2020/12/10 13:00:58;;;;;;;27.70;16.70;;;;;;;;;;5093160;28;20114;-76
2020/12/10 13:03:23;;;;;;;32.05;17.85;;;;;;;;;;5093271;28;20040;-75
2020/12/10 13:05:49;;;;;;;30.23;17.67;;;;;;;;;;5092907;28;20040;-75
2020/12/10 13:08:14;;;;;;;28.30;17.55;;;;;;;;;;5093052;28;20044;-75
2020/12/10 13:10:43;;;;;;;28.17;17.55;;;;;;;;;;5093430;28;20039;-75
2020/12/10 13:13:08;;;;;;;31.05;18.30;;;;;;;;;;5093094;28;20036;-75
2020/12/10 13:15:33;;;;;;;32.75;19.05;;;;;;;;;;5093085;28;20389;-75
2020/12/10 13:17:59;;;;;;;30.98;18.00;;;;;;;;;;5093213;28;20085;-75
2020/12/10 13:20:26;;;;;;;30.52;18.95;;;;;;;;;;5092880;28;20036;-75
2020/12/10 13:22:52;;;;;;;36.47;20.20;;;;;;;;;;5093239;28;20480;-75
2020/12/10 13:25:17;;;;;;;31.02;17.27;;;;;;;;;;5092883;28;20078;-76
2020/12/10 13:27:42;;;;;;;31.13;18.00;;;;;;;;;;5093094;28;20028;-75
2020/12/10 13:30:08;;;;;;;31.50;19.25;;;;;;;;;;5093037;28;20031;-76
2020/12/10 13:32:33;;;;;;;23.92;15.00;;;;;;;;;;5093034;28;20031;-75
2020/12/10 13:34:58;;;;;;;28.00;15.95;;;;;;;;;;5092799;28;20426;-75
2020/12/10 13:37:24;;;;;;;24.90;14.75;;;;;;;;;;5092702;28;20028;-75
2020/12/10 13:39:49;;;;;;;28.95;16.38;;;;;;;;;;5093057;28;20539;-76
2020/12/10 13:42:16;;;;;;;23.90;15.15;;;;;;;;;;5092803;28;20034;-75
2020/12/10 13:44:44;;;;;;;28.48;17.30;;;;;;;;;;5092945;28;20101;-76
2020/12/10 13:47:14;;;;;;;31.85;19.52;;;;;;;;;;5092763;28;20114;-75
2020/12/10 13:49:39;;;;;;;28.55;17.83;;;;;;;;;;5092503;28;20044;-75
2020/12/10 13:52:05;;;;;;;25.13;15.45;;;;;;;;;;5092941;28;20039;-76
2020/12/10 13:54:32;;;;;;;27.02;18.02;;;;;;;;;;5092648;28;20039;-75
2020/12/10 13:56:57;;;;;;;25.88;16.67;;;;;;;;;;5095203;28;20088;-76
2020/12/10 13:59:22;;;;;;;28.75;18.55;;;;;;;;;;5095089;28;20478;-75
2020/12/10 14:01:48;;;;;;;42.25;24.67;;;;;;;;;;5095050;28;20035;-75
2020/12/10 14:04:13;;;;;;;51.22;30.00;;;;;;;;;;5096080;28;20035;-75
2020/12/10 14:06:39;;;;;;;44.67;25.42;;;;;;;;;;5096100;28;20393;-75
2020/12/10 14:09:05;;;;;;;75.90;40.17;;;;;;;;;;5096180;28;20111;-76
2020/12/10 14:11:30;;;;;;;67.88;34.28;;;;;;;;;;5094946;28;20401;-75
2020/12/10 14:13:56;;;;;;;53.50;27.85;;;;;;;;;;5096290;28;20358;-75
2020/12/10 14:16:21;;;;;;;46.28;27.40;;;;;;;;;;5096003;28;20032;-76
2020/12/10 14:18:47;;;;;;;42.42;22.60;;;;;;;;;;5094853;28;20035;-75